Dow, Illinois
Current Conditions -  °F | °C
As of 11:54 PM on Friday 28 Nov 2014 (Local Time) from KSET Reporting Station
Clear Clear  
Wind Chill: 32°   Ceiling: Unl
Heat Index: 37°   Visibility: 10mi
Dew Point: 33°   Wind: 7mph
Humidity: 86%   Direction: 130°SE
Pressure: 29.86"   Gusts: NA
Location:  39.01°N, 90.34°W
Report Text: KSET 290554Z AUTO 13006KT 10SM CLR 03/01 A2986 RMK AO2 SLP113 T00280006 10056 20028 401061056 58012
Loading
Personal Weather Stations






























Interactive Weather Map New forecast layout! Learn more

10-Day Weather Forecast

Advertisements
Track Severe Weather on mobile